createdAt,value
2019-05-10T00:00:57.809Z,5.50
2019-05-10T00:03:42.920Z,5.50
2019-05-10T00:06:29.014Z,5.50
2019-05-10T00:08:55.607Z,5.50
2019-05-10T00:11:29.693Z,5.50
2019-05-10T00:14:14.675Z,5.50
2019-05-10T00:16:41.734Z,5.60
2019-05-10T00:19:08.542Z,5.50
2019-05-10T00:21:35.504Z,5.50
2019-05-10T00:24:02.382Z,5.60
2019-05-10T00:26:29.239Z,5.60
2019-05-10T00:28:56.030Z,5.60
2019-05-10T00:31:23.988Z,5.60
2019-05-10T00:33:50.698Z,5.50
2019-05-10T00:36:17.832Z,5.60
2019-05-10T00:38:44.684Z,5.60
2019-05-10T00:41:11.456Z,5.50
2019-05-10T00:43:38.119Z,5.50
2019-05-10T00:46:05.883Z,5.50
2019-05-10T00:48:32.795Z,5.50
2019-05-10T00:50:59.579Z,5.50
2019-05-10T00:53:26.485Z,5.40
2019-05-10T00:55:53.162Z,5.30
2019-05-10T00:58:19.869Z,5.30
2019-05-10T01:00:46.520Z,5.20
2019-05-10T01:03:13.304Z,5.10
2019-05-10T01:05:40.122Z,5.10
2019-05-10T01:08:06.783Z,5.10
2019-05-10T01:10:33.640Z,5.10
2019-05-10T01:13:00.358Z,5.10
2019-05-10T01:15:27.100Z,5.20
2019-05-10T01:17:53.760Z,5.00
2019-05-10T01:20:20.626Z,5.00
2019-05-10T01:22:47.136Z,5.00
2019-05-10T01:25:13.896Z,4.90
2019-05-10T01:27:40.674Z,4.90
2019-05-10T01:30:08.122Z,4.80
2019-05-10T01:32:35.063Z,4.80
2019-05-10T01:35:03.141Z,4.80
2019-05-10T01:37:29.884Z,4.70
2019-05-10T01:39:56.646Z,4.90
2019-05-10T01:42:23.370Z,4.90
2019-05-10T01:44:50.146Z,4.90
2019-05-10T01:47:16.783Z,5.00
2019-05-10T01:49:43.438Z,4.80
2019-05-10T01:52:10.156Z,4.70
2019-05-10T01:54:38.008Z,4.70
2019-05-10T01:57:04.796Z,4.80
2019-05-10T01:59:31.444Z,4.80
2019-05-10T02:01:58.230Z,4.90
2019-05-10T02:04:24.981Z,4.90
2019-05-10T02:06:51.782Z,4.80
2019-05-10T02:09:18.534Z,4.70
2019-05-10T02:11:46.377Z,4.70
2019-05-10T02:14:13.113Z,4.60
2019-05-10T02:16:39.868Z,4.50
2019-05-10T02:19:06.627Z,4.50
2019-05-10T02:21:33.374Z,4.30
2019-05-10T02:24:00.102Z,4.40
2019-05-10T02:26:26.776Z,4.40
2019-05-10T02:28:53.618Z,4.40
2019-05-10T02:31:21.645Z,4.50
2019-05-10T02:33:48.839Z,4.50
2019-05-10T02:36:15.488Z,4.70
2019-05-10T02:38:42.237Z,4.60
2019-05-10T02:41:08.914Z,4.60
2019-05-10T02:43:35.568Z,4.50
2019-05-10T02:46:02.339Z,4.40
2019-05-10T02:48:30.204Z,4.50
2019-05-10T02:50:56.850Z,4.40
2019-05-10T02:53:23.496Z,4.30
2019-05-10T02:55:51.060Z,4.40
2019-05-10T02:58:19.748Z,4.40
2019-05-10T03:00:48.634Z,4.30
2019-05-10T03:03:16.320Z,4.30
2019-05-10T03:05:48.223Z,4.40
2019-05-10T03:08:13.337Z,4.40
2019-05-10T03:10:43.756Z,4.50
2019-05-10T03:13:14.226Z,4.40
2019-05-10T03:15:43.020Z,4.40
2019-05-10T03:18:09.780Z,4.30
2019-05-10T03:20:36.778Z,4.30
2019-05-10T03:23:07.080Z,4.20
2019-05-10T03:25:33.836Z,4.20
2019-05-10T03:28:00.742Z,4.20
2019-05-10T03:30:27.618Z,4.20
2019-05-10T03:32:54.376Z,4.20
2019-05-10T03:35:21.243Z,4.30
2019-05-10T03:37:48.363Z,4.20
2019-05-10T03:40:15.209Z,4.20
2019-05-10T03:42:42.717Z,4.20
2019-05-10T03:45:10.713Z,4.20
2019-05-10T03:47:37.382Z,4.20
2019-05-10T03:50:05.458Z,4.20
2019-05-10T03:52:32.324Z,4.20
2019-05-10T03:54:59.100Z,4.20
2019-05-10T03:57:25.918Z,4.30
2019-05-10T03:59:52.681Z,4.20
2019-05-10T04:02:19.440Z,4.20
2019-05-10T04:04:46.302Z,4.30
2019-05-10T04:07:13.214Z,4.40
2019-05-10T04:09:39.978Z,4.40
2019-05-10T04:12:06.736Z,4.60
2019-05-10T04:14:33.524Z,4.50
2019-05-10T04:17:00.204Z,4.60
2019-05-10T04:19:26.884Z,4.70
2019-05-10T04:21:53.723Z,4.70
2019-05-10T04:24:20.449Z,4.70
2019-05-10T04:26:47.235Z,4.80
2019-05-10T04:29:13.932Z,4.90
2019-05-10T04:31:41.032Z,5.10
2019-05-10T04:34:07.932Z,5.20
2019-05-10T04:36:34.627Z,5.30
2019-05-10T04:39:01.356Z,5.50
2019-05-10T04:41:29.236Z,5.60
2019-05-10T04:43:55.986Z,5.80
2019-05-10T04:46:22.809Z,5.90
2019-05-10T04:48:49.669Z,6.10
2019-05-10T04:51:16.539Z,6.20
2019-05-10T04:53:43.284Z,6.40
2019-05-10T04:56:10.221Z,6.40
2019-05-10T04:58:36.885Z,6.70
2019-05-10T05:01:03.734Z,6.90
2019-05-10T05:03:30.624Z,7.00
2019-05-10T05:05:57.487Z,7.10
2019-05-10T05:08:24.230Z,7.20
2019-05-10T05:10:52.046Z,7.40
2019-05-10T05:13:18.785Z,7.60
2019-05-10T05:15:45.463Z,8.00
2019-05-10T05:18:12.367Z,8.10
2019-05-10T05:20:40.457Z,8.10
2019-05-10T05:23:07.110Z,8.20
2019-05-10T05:25:35.320Z,8.20
2019-05-10T05:28:08.107Z,8.30
2019-05-10T05:30:31.302Z,8.40
2019-05-10T05:32:58.191Z,8.50
2019-05-10T05:35:25.061Z,8.60
2019-05-10T05:37:51.915Z,8.70
2019-05-10T05:40:18.597Z,8.80
2019-05-10T05:42:45.375Z,8.90
2019-05-10T05:45:12.033Z,9.20
2019-05-10T05:47:42.150Z,9.50
2019-05-10T05:50:07.888Z,9.60
2019-05-10T05:52:34.541Z,9.70
2019-05-10T05:55:01.223Z,9.80
2019-05-10T05:57:29.572Z,10.00
2019-05-10T05:59:57.553Z,10.20
2019-05-10T06:02:25.047Z,10.30
2019-05-10T06:04:51.682Z,10.50
2019-05-10T06:07:18.557Z,10.70
2019-05-10T06:09:45.259Z,10.90
2019-05-10T06:12:12.676Z,11.00
2019-05-10T06:14:43.142Z,11.10
2019-05-10T06:17:08.926Z,11.30
2019-05-10T06:19:35.593Z,11.60
2019-05-10T06:22:04.686Z,11.80
2019-05-10T06:24:34.189Z,11.80
2019-05-10T06:27:03.360Z,11.80
2019-05-10T06:29:28.402Z,11.80
2019-05-10T06:31:58.665Z,11.90
2019-05-10T06:34:23.685Z,12.10
2019-05-10T06:36:50.378Z,12.20
2019-05-10T06:39:17.313Z,12.40
2019-05-10T06:41:44.226Z,12.40
2019-05-10T06:44:11.028Z,12.40
2019-05-10T06:46:37.678Z,12.50
2019-05-10T06:49:08.356Z,12.20
2019-05-10T06:51:34.763Z,12.30
2019-05-10T06:54:02.830Z,12.50
2019-05-10T06:56:30.571Z,12.90
2019-05-10T06:59:11.213Z,12.90
2019-05-10T07:01:25.896Z,12.80
2019-05-10T07:03:53.698Z,12.90
2019-05-10T07:06:20.352Z,13.00
2019-05-10T07:08:51.844Z,13.50
2019-05-10T07:11:15.889Z,13.50
2019-05-10T07:13:47.255Z,13.40
2019-05-10T07:16:15.013Z,13.60
2019-05-10T07:18:39.681Z,13.60
2019-05-10T07:21:08.578Z,13.80
2019-05-10T07:23:39.020Z,13.70
2019-05-10T07:26:03.426Z,13.80
2019-05-10T07:28:30.287Z,14.00
2019-05-10T07:30:57.204Z,14.10
2019-05-10T07:33:23.955Z,14.50
2019-05-10T07:35:50.726Z,14.80
2019-05-10T07:38:17.497Z,15.00
2019-05-10T07:40:44.249Z,15.10
2019-05-10T07:43:10.973Z,15.20
2019-05-10T07:45:37.658Z,15.40
2019-05-10T07:48:08.129Z,15.40
2019-05-10T07:50:33.913Z,15.50
2019-05-10T07:53:00.694Z,15.60
2019-05-10T07:55:29.743Z,15.70
2019-05-10T07:57:59.045Z,15.70
2019-05-10T08:00:25.450Z,15.80
2019-05-10T08:03:00.823Z,15.80
2019-05-10T08:05:20.735Z,15.90
2019-05-10T08:07:49.454Z,15.90
2019-05-10T08:10:16.000Z,16.10
2019-05-10T08:12:45.626Z,16.50
2019-05-10T08:15:11.476Z,16.70
2019-05-10T08:17:43.307Z,16.60
2019-05-10T08:20:09.021Z,16.60
2019-05-10T08:22:41.326Z,16.50
2019-05-10T08:25:06.304Z,16.80
2019-05-10T08:27:33.094Z,17.00
2019-05-10T08:32:32.211Z,16.90
2019-05-10T08:34:57.438Z,17.00
2019-05-10T08:37:33.109Z,17.00
2019-05-10T08:39:55.972Z,17.30
2019-05-10T08:42:38.010Z,17.30
2019-05-10T08:44:54.190Z,17.30
2019-05-10T08:47:25.023Z,17.50
2019-05-10T08:50:00.187Z,17.60
2019-05-10T08:52:19.316Z,17.60
2019-05-10T08:54:44.421Z,17.60
2019-05-10T09:00:05.277Z,17.80
2019-05-10T09:02:29.292Z,18.10
2019-05-10T09:04:54.452Z,17.90
2019-05-10T09:07:23.182Z,18.20
2019-05-10T09:09:50.231Z,18.50
2019-05-10T09:12:19.144Z,18.60
2019-05-10T09:14:48.589Z,18.70
2019-05-10T09:17:22.631Z,19.00
2019-05-10T09:19:44.209Z,19.00
2019-05-10T09:22:12.945Z,18.80
2019-05-10T09:24:43.219Z,18.80
2019-05-10T09:27:08.296Z,18.50
2019-05-10T09:29:37.189Z,18.80
2019-05-10T09:32:06.159Z,19.30
2019-05-10T09:34:32.567Z,19.50
2019-05-10T09:36:59.395Z,19.60
2019-05-10T09:39:26.044Z,19.70
2019-05-10T09:41:53.012Z,20.00
2019-05-10T09:44:19.825Z,20.30
2019-05-10T09:46:46.501Z,20.60
2019-05-10T09:49:17.769Z,20.40
2019-05-10T09:51:42.396Z,20.50
2019-05-10T09:54:09.218Z,20.50
2019-05-10T09:56:42.061Z,20.30
2019-05-10T09:59:04.671Z,20.30
2019-05-10T10:01:37.135Z,20.50
2019-05-10T10:04:02.804Z,20.20
2019-05-10T10:14:18.023Z,22.50
2019-05-10T10:16:48.862Z,22.90
2019-05-10T10:19:13.474Z,22.90
2019-05-10T10:21:40.249Z,22.90
2019-05-10T10:24:15.504Z,23.00
2019-05-10T10:26:37.918Z,23.10
2019-05-10T10:29:07.123Z,22.90
2019-05-10T10:31:33.816Z,22.50
2019-05-10T10:34:03.087Z,22.40
2019-05-10T10:36:30.304Z,22.70
2019-05-10T10:38:57.111Z,22.30
2019-05-10T10:41:26.363Z,22.20
2019-05-10T10:43:53.452Z,22.70
2019-05-10T10:46:20.297Z,23.00
2019-05-10T10:48:49.036Z,23.40
2019-05-10T10:51:18.044Z,23.30
2019-05-10T10:53:46.875Z,22.70
2019-05-10T10:56:12.972Z,22.50
2019-05-10T10:58:39.790Z,21.90
2019-05-10T11:01:10.791Z,21.70
2019-05-10T11:03:35.680Z,21.60
2019-05-10T11:06:02.588Z,21.80
2019-05-10T11:08:32.920Z,21.80
2019-05-10T11:11:00.412Z,22.10
2019-05-10T11:13:41.469Z,22.80
2019-05-10T11:15:58.835Z,23.40
2019-05-10T11:18:23.975Z,24.10
2019-05-10T11:20:53.869Z,24.50
2019-05-10T11:23:24.611Z,24.70
2019-05-10T11:25:54.749Z,24.40
2019-05-10T11:28:16.985Z,24.40
2019-05-10T11:30:43.792Z,24.40
2019-05-10T11:33:23.844Z,23.80
2019-05-10T11:35:41.524Z,24.00
2019-05-10T11:38:12.936Z,23.90
2019-05-10T11:40:36.453Z,23.70
2019-05-10T11:43:03.442Z,23.00
2019-05-10T11:45:32.248Z,22.80
2019-05-10T11:48:02.048Z,22.50
2019-05-10T11:50:34.890Z,22.10
2019-05-10T11:52:57.909Z,21.10
2019-05-10T11:55:24.770Z,21.20
2019-05-10T11:58:01.976Z,21.30
2019-05-10T12:00:29.148Z,20.40
2019-05-10T12:05:22.770Z,19.80
2019-05-10T12:07:47.016Z,19.30
2019-05-10T12:12:59.752Z,19.00
2019-05-10T12:15:13.771Z,19.10
2019-05-10T12:17:43.815Z,19.10
2019-05-10T12:20:16.334Z,19.20
2019-05-10T12:22:40.440Z,18.90
2019-05-10T12:25:31.959Z,19.50
2019-05-10T12:26:04.653Z,19.80
2019-05-10T12:26:05.227Z,19.20
2019-05-10T12:27:45.258Z,19.80
2019-05-10T12:30:05.191Z,20.10
2019-05-10T12:32:33.458Z,19.40
2019-05-10T12:35:01.444Z,19.40
2019-05-10T12:37:30.679Z,19.10
2019-05-10T12:40:06.227Z,18.70
2019-05-10T12:42:25.770Z,19.00
2019-05-10T12:44:55.427Z,18.80
2019-05-10T12:47:21.470Z,19.10
2019-05-10T12:49:48.310Z,19.20
2019-05-10T12:52:22.043Z,19.30
2019-05-10T12:54:47.405Z,19.20
2019-05-10T12:57:14.075Z,19.20
2019-05-10T12:59:40.818Z,18.90
2019-05-10T13:02:10.749Z,18.80
2019-05-10T13:04:40.628Z,18.50
2019-05-10T13:07:04.923Z,18.30
2019-05-10T13:09:39.900Z,18.10
2019-05-10T13:12:06.002Z,17.80
2019-05-10T13:14:29.357Z,17.70
2019-05-10T13:16:56.490Z,17.40
2019-05-10T13:19:23.150Z,17.30
2019-05-10T13:21:53.809Z,17.20
2019-05-10T13:24:18.714Z,17.00
2019-05-10T13:26:45.600Z,16.90
2019-05-10T13:29:12.394Z,16.80
2019-05-10T13:31:42.939Z,16.60
2019-05-10T13:34:07.834Z,16.70
2019-05-10T13:36:37.267Z,16.60
2019-05-10T13:39:05.266Z,16.50
2019-05-10T13:41:32.139Z,16.40
2019-05-10T13:44:04.365Z,16.70
2019-05-10T13:46:27.708Z,17.10
2019-05-10T13:48:54.555Z,17.70
2019-05-10T13:51:21.312Z,18.30
2019-05-10T13:53:48.332Z,18.60
2019-05-10T13:56:15.089Z,18.60
2019-05-10T13:58:42.010Z,18.40
2019-05-10T14:01:13.324Z,18.10
2019-05-10T14:03:45.161Z,17.90
2019-05-10T14:06:06.047Z,17.80
2019-05-10T14:08:32.883Z,17.90
2019-05-10T14:11:01.373Z,17.70
2019-05-10T14:13:28.763Z,17.70
2019-05-10T14:15:55.646Z,17.90
2019-05-10T14:18:22.396Z,17.90
2019-05-10T14:20:49.290Z,18.10
2019-05-10T14:23:17.978Z,18.40
2019-05-10T14:25:45.106Z,18.60
2019-05-10T14:28:15.609Z,19.00
2019-05-10T14:30:40.643Z,19.50
2019-05-10T14:33:08.678Z,19.50
2019-05-10T14:35:36.132Z,19.20
2019-05-10T14:38:08.713Z,18.90
2019-05-10T14:40:31.652Z,18.80
2019-05-10T14:42:59.558Z,18.40
2019-05-10T14:45:26.474Z,18.30
2019-05-10T14:47:53.454Z,18.30
2019-05-10T14:50:26.122Z,18.20
2019-05-10T14:52:48.832Z,18.30
2019-05-10T14:55:15.674Z,18.30
2019-05-10T14:57:42.538Z,18.40
2019-05-10T15:00:09.223Z,18.40
2019-05-10T15:02:36.069Z,18.50
2019-05-10T15:05:08.983Z,18.60
2019-05-10T15:07:33.408Z,18.60
2019-05-10T15:10:02.237Z,18.40
2019-05-10T15:12:28.889Z,18.30
2019-05-10T15:14:56.110Z,18.10
2019-05-10T15:17:22.961Z,18.10
2019-05-10T15:19:57.314Z,18.00
2019-05-10T15:22:22.852Z,18.10
2019-05-10T15:24:47.209Z,18.20
2019-05-10T15:27:16.250Z,18.30
2019-05-10T15:29:42.620Z,18.40
2019-05-10T15:32:09.365Z,18.40
2019-05-10T15:34:36.140Z,18.50
2019-05-10T15:37:09.101Z,18.50
2019-05-10T15:39:31.401Z,18.40
2019-05-10T15:41:59.124Z,18.40
2019-05-10T15:44:31.414Z,18.40
2019-05-10T15:46:56.398Z,18.30
2019-05-10T15:49:24.475Z,18.10
2019-05-10T15:51:56.802Z,18.00
2019-05-10T15:54:20.003Z,17.80
2019-05-10T15:56:46.867Z,17.50
2019-05-10T15:59:19.410Z,17.50
2019-05-10T16:01:45.434Z,17.50
2019-05-10T16:04:10.914Z,17.50
2019-05-10T16:06:39.446Z,17.40
2019-05-10T16:09:16.927Z,17.30
2019-05-10T16:11:35.596Z,17.30
2019-05-10T16:14:04.623Z,17.30
2019-05-10T16:16:37.223Z,17.20
2019-05-10T16:19:00.169Z,17.00
2019-05-10T16:21:26.964Z,16.80
2019-05-10T16:23:53.635Z,16.60
2019-05-10T16:26:22.804Z,16.60
2019-05-10T16:28:56.549Z,16.60
2019-05-10T16:31:17.546Z,16.50
2019-05-10T16:33:48.366Z,16.40
2019-05-10T16:36:12.988Z,16.30
2019-05-10T16:38:39.858Z,16.20
2019-05-10T16:41:06.541Z,16.30
2019-05-10T16:43:33.384Z,16.30
2019-05-10T16:46:00.139Z,16.30
2019-05-10T16:48:28.379Z,16.30
2019-05-10T16:50:55.311Z,16.60
2019-05-10T16:53:22.084Z,16.70
2019-05-10T16:55:48.891Z,16.80
2019-05-10T16:58:17.966Z,17.00
2019-05-10T17:00:46.355Z,17.00
2019-05-10T17:03:13.103Z,16.90
2019-05-10T17:05:53.077Z,16.90
2019-05-10T17:08:11.023Z,16.70
2019-05-10T17:10:37.759Z,16.60
2019-05-10T17:13:06.534Z,16.30
2019-05-10T17:15:33.914Z,16.20
2019-05-10T17:18:01.783Z,16.10
2019-05-10T17:20:28.496Z,16.10
2019-05-10T17:23:01.503Z,15.90
2019-05-10T17:25:23.956Z,15.70
2019-05-10T17:27:57.521Z,15.60
2019-05-10T17:30:21.649Z,15.50
2019-05-10T17:32:48.329Z,15.30
2019-05-10T17:35:15.199Z,15.10
2019-05-10T17:37:42.003Z,15.00
2019-05-10T17:40:12.062Z,14.90
2019-05-10T17:42:41.161Z,14.80
2019-05-10T17:45:07.473Z,14.60
2019-05-10T17:47:34.436Z,14.50
2019-05-10T17:50:01.068Z,14.40
2019-05-10T17:52:27.919Z,14.30
2019-05-10T17:54:55.771Z,14.20
2019-05-10T17:57:22.576Z,14.10
2019-05-10T17:59:52.807Z,14.00
2019-05-10T18:02:18.114Z,13.70
2019-05-10T18:04:45.014Z,13.40
2019-05-10T18:07:11.606Z,13.30
2019-05-10T18:09:38.390Z,13.20
2019-05-10T18:12:05.602Z,13.10
2019-05-10T18:14:32.414Z,13.00
2019-05-10T18:16:59.101Z,13.00
2019-05-10T18:19:26.556Z,13.00
2019-05-10T18:21:54.926Z,12.90
2019-05-10T18:24:22.450Z,12.70
2019-05-10T18:26:49.229Z,12.50
2019-05-10T18:29:16.024Z,12.40
2019-05-10T18:31:54.631Z,12.30
2019-05-10T18:34:11.413Z,12.30
2019-05-10T18:36:50.990Z,12.20
2019-05-10T18:39:09.114Z,12.10
2019-05-10T18:41:35.973Z,12.00
2019-05-10T18:44:03.045Z,11.90
2019-05-10T18:46:29.936Z,11.90
2019-05-10T18:48:56.776Z,11.80
2019-05-10T18:51:24.337Z,11.70
2019-05-10T18:53:52.178Z,11.60
2019-05-10T18:56:19.084Z,11.50
2019-05-10T18:58:45.931Z,11.40
2019-05-10T19:01:12.703Z,11.40
2019-05-10T19:03:39.486Z,11.10
2019-05-10T19:06:11.162Z,11.10
2019-05-10T19:08:36.056Z,11.10
2019-05-10T19:11:03.920Z,10.90
2019-05-10T19:13:34.199Z,11.00
2019-05-10T19:15:59.909Z,10.90
2019-05-10T19:18:26.699Z,10.80
2019-05-10T19:20:55.148Z,10.90
2019-05-10T19:23:22.041Z,10.70
2019-05-10T19:25:51.868Z,10.70
2019-05-10T19:28:21.042Z,10.70
2019-05-10T19:30:46.374Z,10.80
2019-05-10T19:33:13.158Z,10.80
2019-05-10T19:35:39.900Z,10.60
2019-05-10T19:38:06.786Z,10.50
2019-05-10T19:40:33.749Z,10.60
2019-05-10T19:43:00.501Z,10.60
2019-05-10T19:45:30.964Z,10.50
2019-05-10T19:47:57.188Z,10.50
2019-05-10T19:50:30.332Z,10.40
2019-05-10T19:52:52.709Z,10.30
2019-05-10T19:55:21.693Z,10.20
2019-05-10T19:57:49.626Z,10.20
2019-05-10T20:00:16.827Z,10.10
2019-05-10T20:02:43.510Z,10.10
2019-05-10T20:05:10.288Z,10.10
2019-05-10T20:07:45.800Z,10.00
2019-05-10T20:10:07.675Z,10.10
2019-05-10T20:12:34.186Z,10.10
2019-05-10T20:15:01.024Z,10.00
2019-05-10T20:17:27.911Z,9.90
2019-05-10T20:19:54.748Z,9.90
2019-05-10T20:22:21.628Z,10.00
2019-05-10T20:24:48.513Z,10.00
2019-05-10T20:27:15.400Z,10.00
2019-05-10T20:29:42.266Z,9.90
2019-05-10T20:32:10.221Z,9.90
2019-05-10T20:34:37.010Z,9.90
2019-05-10T20:37:03.796Z,10.00
2019-05-10T20:39:30.553Z,10.00
2019-05-10T20:41:57.524Z,10.00
2019-05-10T20:44:24.468Z,9.90
2019-05-10T20:46:51.262Z,9.80
2019-05-10T20:49:18.211Z,9.80
2019-05-10T20:51:45.966Z,9.70
2019-05-10T20:54:12.733Z,9.60
2019-05-10T20:56:39.529Z,9.60
2019-05-10T20:59:06.238Z,9.60
2019-05-10T21:01:33.022Z,9.60
2019-05-10T21:03:59.860Z,9.60
2019-05-10T21:06:26.671Z,9.40
2019-05-10T21:08:53.458Z,9.30
2019-05-10T21:11:20.232Z,9.20
2019-05-10T21:13:47.023Z,9.10
2019-05-10T21:16:13.669Z,9.00
2019-05-10T21:18:40.546Z,9.10
2019-05-10T21:21:07.389Z,9.10
2019-05-10T21:23:34.140Z,9.00
2019-05-10T21:26:00.905Z,9.00
2019-05-10T21:28:29.895Z,9.00
2019-05-10T21:30:56.585Z,8.90
2019-05-10T21:33:23.351Z,8.80
2019-05-10T21:35:50.283Z,8.80
2019-05-10T21:38:31.631Z,8.80
2019-05-10T21:40:45.724Z,8.80
2019-05-10T21:43:12.733Z,8.80
2019-05-10T21:45:39.524Z,8.70
2019-05-10T21:48:06.370Z,8.70
2019-05-10T21:50:33.196Z,8.70
2019-05-10T21:53:00.001Z,8.70
2019-05-10T21:55:26.727Z,8.70
2019-05-10T21:57:53.518Z,8.70
2019-05-10T22:00:24.124Z,8.80
2019-05-10T22:02:52.851Z,8.70
2019-05-10T22:05:19.792Z,8.70
2019-05-10T22:07:46.763Z,8.70
2019-05-10T22:10:14.527Z,8.60
2019-05-10T22:12:41.473Z,8.60
2019-05-10T22:15:08.234Z,8.70
2019-05-10T22:17:35.478Z,8.70
2019-05-10T22:20:05.968Z,8.70
2019-05-10T22:22:32.758Z,8.70
2019-05-10T22:24:59.577Z,8.60
2019-05-10T22:27:26.316Z,8.60
2019-05-10T22:29:53.174Z,8.60
2019-05-10T22:32:20.342Z,8.50
2019-05-10T22:34:47.091Z,8.50
2019-05-10T22:37:13.778Z,8.40
2019-05-10T22:39:40.635Z,8.40
2019-05-10T22:42:07.392Z,8.40
2019-05-10T22:44:34.051Z,8.40
2019-05-10T22:47:00.870Z,8.20
2019-05-10T22:49:27.529Z,8.20
2019-05-10T22:51:54.280Z,8.20
2019-05-10T22:54:21.201Z,8.10
2019-05-10T22:56:47.984Z,8.10
2019-05-10T22:59:14.668Z,8.10
2019-05-10T23:01:41.447Z,8.00
2019-05-10T23:04:08.321Z,8.00
2019-05-10T23:06:35.269Z,7.90
2019-05-10T23:09:02.442Z,7.90
2019-05-10T23:11:30.269Z,7.80
2019-05-10T23:13:56.993Z,7.90
2019-05-10T23:16:23.793Z,7.90
2019-05-10T23:18:50.583Z,8.00
2019-05-10T23:21:17.364Z,8.20
2019-05-10T23:23:44.426Z,8.20
2019-05-10T23:26:11.253Z,8.40
2019-05-10T23:28:50.047Z,8.40
2019-05-10T23:32:12.801Z,8.50
2019-05-10T23:34:08.627Z,8.60
2019-05-10T23:58:46.362Z,8.20
